Capt. Harry — WDC3690 — position and weather

sailwx.info

Track history (hours):
 
Tides and Currents Weather Stations Pressure Air Temp Water Temp Dewpoint Dewpoint Depression Visibility Wind Speed Wind Dir Waves Ship Positions

Capt. Harry

Owner: Wilmington Tug, Inc., New Castle, DE. More information available from US FCC via Universal Licensing System and Coast Guard Vessel Documentation Center.

Last reported at 2016-Aug-24 20:34 UTC. Time now 2016-Aug-24 21:31 UTC.
Position N 39°53' W 075°11'.

Type: Tug. MMSI: 367012530.

Date/timePositionNaut miles runAvg speedWind from/ knotsBaromVisibWave heightAir tempDewpointWater temp
2016-Aug-24 20:34N 39°53' W 075°11'0 0.0
2016-Aug-24 19:34N 39°53' W 075°11'0 0.0
2016-Aug-24 18:33N 39°53' W 075°11'0 0.0
2016-Aug-24 17:33N 39°53' W 075°11'0 0.0
2016-Aug-24 16:33N 39°53' W 075°11'0 0.0
2016-Aug-24 15:34N 39°53' W 075°11'0 0.0
2016-Aug-24 14:34N 39°53' W 075°11'0 0.0
2016-Aug-24 13:34N 39°53' W 075°11'0 0.0
2016-Aug-24 12:33N 39°53' W 075°11'0 0.3
2016-Aug-24 11:34N 39°53' W 075°11'2 2.1
2016-Aug-24 10:33N 39°54' W 075°08'3 2.6
2016-Aug-24 09:34N 39°53' W 075°11'3 2.9
2016-Aug-24 08:34N 39°54' W 075°08'6 6.1
2016-Aug-24 07:33N 39°51' W 075°15'2 2.1
2016-Aug-24 06:33N 39°51' W 075°18'2 0.8
2016-Aug-24 04:33N 39°51' W 075°16'0 0.0
2016-Aug-24 03:34N 39°51' W 075°16'0 0.0
2016-Aug-24 02:34N 39°51' W 075°16'0 0.0
2016-Aug-24 01:34N 39°51' W 075°16'0 0.0
2016-Aug-24 00:34N 39°51' W 075°16'4 4.5
2016-Aug-23 23:33N 39°50' W 075°22'4 3.9
2016-Aug-23 22:34N 39°48' W 075°26'0 0.0
2016-Aug-23 21:33N 39°48' W 075°26'0 0.0
2016-Aug-23 20:34N 39°48' W 075°26'0 0.0
2016-Aug-23 19:34N 39°48' W 075°26'0 0.0
2016-Aug-23 18:33N 39°48' W 075°26'0 0.0
2016-Aug-23 17:34N 39°48' W 075°26'0 0.0
2016-Aug-23 16:33N 39°48' W 075°26'0 0.0
2016-Aug-23 15:33N 39°48' W 075°26'1 0.8
2016-Aug-23 14:34N 39°48' W 075°25'2 2.4
2016-Aug-23 13:33N 39°47' W 075°27'3 2.7
2016-Aug-23 12:33N 39°49' W 075°25'1010.4
2016-Aug-23 11:33N 39°53' W 075°12'1 1.0
2016-Aug-23 10:33N 39°53' W 075°11'0 0.0
2016-Aug-23 09:33N 39°53' W 075°11'0 0.0
2016-Aug-23 08:33N 39°53' W 075°11'0 0.0
2016-Aug-23 07:33N 39°53' W 075°11'0 0.0
2016-Aug-23 06:33N 39°53' W 075°11'0 0.0
2016-Aug-23 05:33N 39°53' W 075°11'0 0.0
2016-Aug-23 04:33N 39°53' W 075°11'0 0.0
2016-Aug-23 03:33N 39°53' W 075°11'0 0.0
2016-Aug-23 02:33N 39°53' W 075°11'0 0.0
2016-Aug-23 01:33N 39°53' W 075°11'0 0.0
2016-Aug-23 00:33N 39°53' W 075°11'0 0.0
2016-Aug-22 23:33N 39°53' W 075°11'0 0.0
2016-Aug-22 22:33N 39°53' W 075°11'2 2.4
2016-Aug-22 21:33N 39°54' W 075°08'0 0.1
2016-Aug-22 20:33N 39°54' W 075°08'0 0.0
2016-Aug-22 19:34N 39°54' W 075°08'0 0.0
2016-Aug-22 18:33N 39°54' W 075°08'0 0.0
2016-Aug-22 17:33N 39°54' W 075°08'0 0.0
2016-Aug-22 16:33N 39°54' W 075°08'0 0.0
2016-Aug-22 15:33N 39°54' W 075°08'0 0.0
2016-Aug-22 14:33N 39°54' W 075°08'0 0.0
2016-Aug-22 13:34N 39°54' W 075°08'0 0.0
2016-Aug-22 12:33N 39°54' W 075°08'0 0.0
2016-Aug-22 11:33N 39°54' W 075°08'1 1.4
2016-Aug-22 10:33N 39°53' W 075°10'1 1.2
2016-Aug-22 09:33N 39°53' W 075°11'0 0.0
2016-Aug-22 08:33N 39°53' W 075°11'0 0.0
2016-Aug-22 07:33N 39°53' W 075°11'0 0.0
2016-Aug-22 06:33N 39°53' W 075°11'0 0.0
2016-Aug-22 05:33N 39°53' W 075°11'0 0.0
2016-Aug-22 04:33N 39°53' W 075°11'0 0.0
2016-Aug-22 03:33N 39°53' W 075°11'0 0.0
2016-Aug-22 02:33N 39°53' W 075°11'0 0.0
2016-Aug-22 01:33N 39°53' W 075°11'0 0.0
2016-Aug-22 00:33N 39°53' W 075°11'0 0.0
2016-Aug-21 23:33N 39°53' W 075°11'0 0.0
2016-Aug-21 22:34N 39°53' W 075°11'3 2.8
2016-Aug-21 21:33N 39°51' W 075°14'1 1.0
2016-Aug-21 20:33N 39°51' W 075°15'1 0.5
2016-Aug-21 19:33N 39°51' W 075°16'0 0.0
2016-Aug-21 18:33N 39°51' W 075°16'0 0.0
2016-Aug-21 17:34N 39°51' W 075°16'0 0.0
2016-Aug-21 16:33N 39°51' W 075°16'0 0.0
2016-Aug-21 15:34N 39°51' W 075°16'0 0.0
2016-Aug-21 14:33N 39°51' W 075°16'0 0.0
2016-Aug-21 13:33N 39°51' W 075°16'0 0.0
2016-Aug-21 12:33N 39°51' W 075°16'0 0.0
2016-Aug-21 11:33N 39°51' W 075°16'0 0.0
2016-Aug-21 10:33N 39°51' W 075°16'0 0.0
2016-Aug-21 09:33N 39°51' W 075°16'0 0.5
2016-Aug-21 08:33N 39°51' W 075°16'3 3.3
2016-Aug-21 07:33N 39°52' W 075°13'1 1.4
2016-Aug-21 06:33N 39°53' W 075°11'0 0.0
2016-Aug-21 05:34N 39°53' W 075°11'0 0.0
2016-Aug-21 04:33N 39°53' W 075°11'0 0.0
2016-Aug-21 03:33N 39°53' W 075°11'0 0.0
2016-Aug-21 02:33N 39°53' W 075°11'0 0.0
2016-Aug-21 01:34N 39°53' W 075°11'0 0.0
2016-Aug-21 00:33N 39°53' W 075°11'0 0.0
2016-Aug-20 23:33N 39°53' W 075°11'0 0.0
2016-Aug-20 22:33N 39°53' W 075°11'0 0.0
2016-Aug-20 21:34N 39°53' W 075°11'0 0.0
2016-Aug-20 20:33N 39°53' W 075°11'0 0.0
2016-Aug-20 19:33N 39°53' W 075°11'0 0.4
2016-Aug-20 18:34N 39°53' W 075°11'1 1.4
2016-Aug-20 17:33N 39°53' W 075°09'2 1.8
2016-Aug-20 16:33N 39°53' W 075°11'0 0.0
2016-Aug-20 15:33N 39°53' W 075°11'0 0.0
2016-Aug-20 14:33N 39°53' W 075°11'0 0.0
2016-Aug-20 13:33N 39°53' W 075°11'0 0.0
2016-Aug-20 12:33N 39°53' W 075°11'0 0.0
2016-Aug-20 11:33N 39°53' W 075°11'5 4.5
2016-Aug-20 10:33N 39°51' W 075°16'0 0.0
2016-Aug-20 09:33N 39°51' W 075°16'1 0.9
2016-Aug-20 08:33N 39°51' W 075°17'4 4.2
2016-Aug-20 07:34N 39°52' W 075°12'1 1.1
2016-Aug-20 06:33N 39°53' W 075°11'0 0.0
2016-Aug-20 05:33N 39°53' W 075°11'0 0.0
2016-Aug-20 04:33N 39°53' W 075°11'0 0.0
2016-Aug-20 03:33N 39°53' W 075°11'3 2.8
2016-Aug-20 02:33N 39°51' W 075°14'2 1.9
2016-Aug-20 01:33N 39°53' W 075°12'1 0.9
2016-Aug-20 00:33N 39°53' W 075°11'0 0.0
2016-Aug-19 23:33N 39°53' W 075°11'0 0.0
2016-Aug-19 22:33N 39°53' W 075°11'0 0.0
2016-Aug-19 21:33N 39°53' W 075°11'0 0.0
2016-Aug-19 20:33N 39°53' W 075°11'0 0.0
2016-Aug-19 19:33N 39°53' W 075°11'0 0.0
2016-Aug-19 18:33N 39°53' W 075°11'2 1.7
2016-Aug-19 17:33N 39°52' W 075°13'0 0.0
2016-Aug-19 16:33N 39°52' W 075°13'2 1.7
2016-Aug-19 15:33N 39°53' W 075°11'1 0.5
2016-Aug-19 14:33N 39°53' W 075°12'0 0.3
2016-Aug-19 13:33N 39°53' W 075°12'0 0.3
2016-Aug-19 12:33N 39°53' W 075°11'0 0.0
2016-Aug-19 11:33N 39°53' W 075°11'0 0.0
2016-Aug-19 10:33N 39°53' W 075°11'0 0.0
2016-Aug-19 09:33N 39°53' W 075°11'0 0.0
2016-Aug-19 08:34N 39°53' W 075°11'0 0.0
2016-Aug-19 07:33N 39°53' W 075°11'0 0.0
2016-Aug-19 06:33N 39°53' W 075°11'3 2.7
2016-Aug-19 05:33N 39°51' W 075°14'0 0.0
2016-Aug-19 04:33N 39°51' W 075°14'0 0.0
2016-Aug-19 03:33N 39°51' W 075°14'0 0.4
2016-Aug-19 02:33N 39°52' W 075°13'2 1.9
2016-Aug-19 01:33N 39°51' W 075°16'0 0.0
2016-Aug-19 00:33N 39°51' W 075°16'0 0.0
2016-Aug-18 23:33N 39°51' W 075°16'0 0.0
2016-Aug-18 22:33N 39°51' W 075°16'0 0.4
2016-Aug-18 21:33N 39°51' W 075°16'9 8.9
2016-Aug-18 20:33N 39°47' W 075°27'5 5.3
2016-Aug-18 19:33N 39°43' W 075°31'0 0.0
2016-Aug-18 18:33N 39°43' W 075°31'0 0.0
2016-Aug-18 17:33N 39°43' W 075°31'0 0.0
2016-Aug-18 16:34N 39°43' W 075°31'0 0.0
2016-Aug-18 15:33N 39°43' W 075°31'0 0.0
2016-Aug-18 14:34N 39°43' W 075°31'0 0.0
2016-Aug-18 13:33N 39°43' W 075°31'0 0.0
2016-Aug-18 12:34N 39°43' W 075°31'0 0.0
2016-Aug-18 11:33N 39°43' W 075°31'0 0.0
2016-Aug-18 10:33N 39°43' W 075°31'0 0.0
2016-Aug-18 09:33N 39°43' W 075°31'0 0.0
2016-Aug-18 08:33N 39°43' W 075°31'0 0.0
2016-Aug-18 07:34N 39°43' W 075°31'0 0.0
2016-Aug-18 06:33N 39°43' W 075°31'0 0.3
2016-Aug-18 05:34N 39°43' W 075°31'8 7.5
2016-Aug-18 04:34N 39°49' W 075°24'0 0.0
2016-Aug-18 03:33N 39°49' W 075°24'2 2.0
2016-Aug-18 02:33N 39°48' W 075°26'4 4.0
2016-Aug-18 01:33N 39°50' W 075°22'9 9.1
2016-Aug-18 00:33N 39°53' W 075°11'0 0.0
2016-Aug-17 23:33N 39°53' W 075°11'0 0.0
2016-Aug-17 22:33N 39°53' W 075°11'0 0.0
2016-Aug-17 21:33N 39°53' W 075°11'0 0.0
2016-Aug-17 20:33N 39°53' W 075°11'0 0.0
2016-Aug-17 19:33N 39°53' W 075°11'0 0.0
2016-Aug-17 18:33N 39°53' W 075°11'0 0.0
2016-Aug-17 17:33N 39°53' W 075°11'2 2.5
2016-Aug-17 16:33N 39°54' W 075°08'2 2.5
2016-Aug-17 15:33N 39°53' W 075°11'1 1.0
2016-Aug-17 14:34N 39°53' W 075°10'6 6.4
2016-Aug-17 13:33N 39°59' W 075°06'0 0.1
2016-Aug-17 12:34N 39°59' W 075°06'4 3.6
2016-Aug-17 11:33N 39°55' W 075°08'3 2.7
2016-Aug-17 10:33N 39°53' W 075°09'1 1.2
2016-Aug-17 09:33N 39°54' W 075°08'0 0.0
2016-Aug-17 08:34N 39°54' W 075°08'0 0.0
2016-Aug-17 07:34N 39°54' W 075°08'0 0.0
2016-Aug-17 06:33N 39°54' W 075°08'0 0.0
2016-Aug-17 05:33N 39°54' W 075°08'0 0.0
2016-Aug-17 04:34N 39°54' W 075°08'0 0.0
2016-Aug-17 03:33N 39°54' W 075°08'0 0.0
2016-Aug-17 02:33N 39°54' W 075°08'0 0.0
2016-Aug-17 01:34N 39°54' W 075°08'0 0.0
2016-Aug-17 00:33N 39°54' W 075°08'5 5.3
2016-Aug-16 23:33N 39°59' W 075°05'0 0.0
2016-Aug-16 22:33N 39°59' W 075°05'0 0.0
2016-Aug-16 21:33N 39°59' W 075°05'0 0.0
2016-Aug-16 20:33N 39°59' W 075°05'0 0.0
2016-Aug-16 19:33N 39°59' W 075°05'0 0.0
2016-Aug-16 18:33N 39°59' W 075°05'0 0.3
2016-Aug-16 17:33N 39°58' W 075°06'4 3.7
2016-Aug-16 16:33N 39°55' W 075°08'1010.1
2016-Aug-16 15:33N 39°51' W 075°20'4 4.1
2016-Aug-16 14:33N 39°49' W 075°24'0 0.0
2016-Aug-16 13:33N 39°49' W 075°24'2 2.2
2016-Aug-16 12:33N 39°47' W 075°27'1 0.5
2016-Aug-16 11:33N 39°48' W 075°26'6 5.9
2016-Aug-16 10:33N 39°43' W 075°31'0 0.0
2016-Aug-16 09:33N 39°43' W 075°31'0 0.0
2016-Aug-16 08:34N 39°43' W 075°31'0 0.0
2016-Aug-16 07:33N 39°43' W 075°31'0 0.0
2016-Aug-16 04:33N 39°43' W 075°31'0 0.0
2016-Aug-16 03:33N 39°43' W 075°31'0 0.0
2016-Aug-16 02:33N 39°43' W 075°31'0 0.0
2016-Aug-16 01:34N 39°43' W 075°31'0 0.0
2016-Aug-16 00:33N 39°43' W 075°31'0 0.0
2016-Aug-15 23:33N 39°43' W 075°31'0 0.3
2016-Aug-15 22:33N 39°43' W 075°31'0 0.3
2016-Aug-15 21:33N 39°43' W 075°31'0 0.0
2016-Aug-15 20:33N 39°43' W 075°31'0 0.0
2016-Aug-15 19:33N 39°43' W 075°31'0 0.0
2016-Aug-15 18:33N 39°43' W 075°31'5 4.5
2016-Aug-15 17:33N 39°39' W 075°33'4 4.2
2016-Aug-15 16:33N 39°35' W 075°35'0 0.2
2016-Aug-15 15:34N 39°35' W 075°35'4 4.2
2016-Aug-15 14:33N 39°39' W 075°34'5 4.6
2016-Aug-15 13:33N 39°43' W 075°31'0 0.0
2016-Aug-15 12:33N 39°43' W 075°31'0 0.0
2016-Aug-15 11:33N 39°43' W 075°31'0 0.0
2016-Aug-15 10:33N 39°43' W 075°31'0 0.0
2016-Aug-15 09:33N 39°43' W 075°31'0 0.0
2016-Aug-15 08:33N 39°43' W 075°31'0 0.0
2016-Aug-15 07:33N 39°43' W 075°31'0 0.0
2016-Aug-15 06:33N 39°43' W 075°31'0 0.0
2016-Aug-15 04:33N 39°43' W 075°31'0 0.0
2016-Aug-15 03:33N 39°43' W 075°31'4 4.0
2016-Aug-15 02:33N 39°46' W 075°28'4 3.7
2016-Aug-15 01:33N 39°49' W 075°24'0 0.2
2016-Aug-15 00:33N 39°49' W 075°24'8 7.7
2016-Aug-14 23:33N 39°43' W 075°31'0 0.0
2016-Aug-14 22:33N 39°43' W 075°31'0 0.0
2016-Aug-14 21:33N 39°43' W 075°31'  
Track history (hours):
 
Tides and Currents Weather Stations Pressure Air Temp Water Temp Dewpoint Dewpoint Depression Visibility Wind Speed Wind Dir Waves Ship Positions

Capt. Harry

Owner: Wilmington Tug, Inc., New Castle, DE. More information available from US FCC via Universal Licensing System and Coast Guard Vessel Documentation Center.

Last reported at 2016-Aug-24 20:34 UTC. Time now 2016-Aug-24 21:31 UTC.
Position N 39°53' W 075°11'.

Type: Tug. MMSI: 367012530.

Date/timePositionNaut miles runAvg speedWind from/ knotsBaromVisibWave heightAir tempDewpointWater temp
2016-Aug-24 20:34N 39°53' W 075°11'0 0.0
2016-Aug-24 19:34N 39°53' W 075°11'0 0.0
2016-Aug-24 18:33N 39°53' W 075°11'0 0.0
2016-Aug-24 17:33N 39°53' W 075°11'0 0.0
2016-Aug-24 16:33N 39°53' W 075°11'0 0.0
2016-Aug-24 15:34N 39°53' W 075°11'0 0.0
2016-Aug-24 14:34N 39°53' W 075°11'0 0.0
2016-Aug-24 13:34N 39°53' W 075°11'0 0.0
2016-Aug-24 12:33N 39°53' W 075°11'0 0.3
2016-Aug-24 11:34N 39°53' W 075°11'2 2.1
2016-Aug-24 10:33N 39°54' W 075°08'3 2.6
2016-Aug-24 09:34N 39°53' W 075°11'3 2.9
2016-Aug-24 08:34N 39°54' W 075°08'6 6.1
2016-Aug-24 07:33N 39°51' W 075°15'2 2.1
2016-Aug-24 06:33N 39°51' W 075°18'2 0.8
2016-Aug-24 04:33N 39°51' W 075°16'0 0.0
2016-Aug-24 03:34N 39°51' W 075°16'0 0.0
2016-Aug-24 02:34N 39°51' W 075°16'0 0.0
2016-Aug-24 01:34N 39°51' W 075°16'0 0.0
2016-Aug-24 00:34N 39°51' W 075°16'4 4.5
2016-Aug-23 23:33N 39°50' W 075°22'4 3.9
2016-Aug-23 22:34N 39°48' W 075°26'0 0.0
2016-Aug-23 21:33N 39°48' W 075°26'0 0.0
2016-Aug-23 20:34N 39°48' W 075°26'0 0.0
2016-Aug-23 19:34N 39°48' W 075°26'0 0.0
2016-Aug-23 18:33N 39°48' W 075°26'0 0.0
2016-Aug-23 17:34N 39°48' W 075°26'0 0.0
2016-Aug-23 16:33N 39°48' W 075°26'0 0.0
2016-Aug-23 15:33N 39°48' W 075°26'1 0.8
2016-Aug-23 14:34N 39°48' W 075°25'2 2.4
2016-Aug-23 13:33N 39°47' W 075°27'3 2.7
2016-Aug-23 12:33N 39°49' W 075°25'1010.4
2016-Aug-23 11:33N 39°53' W 075°12'1 1.0
2016-Aug-23 10:33N 39°53' W 075°11'0 0.0
2016-Aug-23 09:33N 39°53' W 075°11'0 0.0
2016-Aug-23 08:33N 39°53' W 075°11'0 0.0
2016-Aug-23 07:33N 39°53' W 075°11'0 0.0
2016-Aug-23 06:33N 39°53' W 075°11'0 0.0
2016-Aug-23 05:33N 39°53' W 075°11'0 0.0
2016-Aug-23 04:33N 39°53' W 075°11'0 0.0
2016-Aug-23 03:33N 39°53' W 075°11'0 0.0
2016-Aug-23 02:33N 39°53' W 075°11'0 0.0
2016-Aug-23 01:33N 39°53' W 075°11'0 0.0
2016-Aug-23 00:33N 39°53' W 075°11'0 0.0
2016-Aug-22 23:33N 39°53' W 075°11'0 0.0
2016-Aug-22 22:33N 39°53' W 075°11'2 2.4
2016-Aug-22 21:33N 39°54' W 075°08'0 0.1
2016-Aug-22 20:33N 39°54' W 075°08'0 0.0
2016-Aug-22 19:34N 39°54' W 075°08'0 0.0
2016-Aug-22 18:33N 39°54' W 075°08'0 0.0
2016-Aug-22 17:33N 39°54' W 075°08'0 0.0
2016-Aug-22 16:33N 39°54' W 075°08'0 0.0
2016-Aug-22 15:33N 39°54' W 075°08'0 0.0
2016-Aug-22 14:33N 39°54' W 075°08'0 0.0
2016-Aug-22 13:34N 39°54' W 075°08'0 0.0
2016-Aug-22 12:33N 39°54' W 075°08'0 0.0
2016-Aug-22 11:33N 39°54' W 075°08'1 1.4
2016-Aug-22 10:33N 39°53' W 075°10'1 1.2
2016-Aug-22 09:33N 39°53' W 075°11'0 0.0
2016-Aug-22 08:33N 39°53' W 075°11'0 0.0
2016-Aug-22 07:33N 39°53' W 075°11'0 0.0
2016-Aug-22 06:33N 39°53' W 075°11'0 0.0
2016-Aug-22 05:33N 39°53' W 075°11'0 0.0
2016-Aug-22 04:33N 39°53' W 075°11'0 0.0
2016-Aug-22 03:33N 39°53' W 075°11'0 0.0
2016-Aug-22 02:33N 39°53' W 075°11'0 0.0
2016-Aug-22 01:33N 39°53' W 075°11'0 0.0
2016-Aug-22 00:33N 39°53' W 075°11'0 0.0
2016-Aug-21 23:33N 39°53' W 075°11'0 0.0
2016-Aug-21 22:34N 39°53' W 075°11'3 2.8
2016-Aug-21 21:33N 39°51' W 075°14'1 1.0
2016-Aug-21 20:33N 39°51' W 075°15'1 0.5
2016-Aug-21 19:33N 39°51' W 075°16'0 0.0
2016-Aug-21 18:33N 39°51' W 075°16'0 0.0
2016-Aug-21 17:34N 39°51' W 075°16'0 0.0
2016-Aug-21 16:33N 39°51' W 075°16'0 0.0
2016-Aug-21 15:34N 39°51' W 075°16'0 0.0
2016-Aug-21 14:33N 39°51' W 075°16'0 0.0
2016-Aug-21 13:33N 39°51' W 075°16'0 0.0
2016-Aug-21 12:33N 39°51' W 075°16'0 0.0
2016-Aug-21 11:33N 39°51' W 075°16'0 0.0
2016-Aug-21 10:33N 39°51' W 075°16'0 0.0
2016-Aug-21 09:33N 39°51' W 075°16'0 0.5
2016-Aug-21 08:33N 39°51' W 075°16'3 3.3
2016-Aug-21 07:33N 39°52' W 075°13'1 1.4
2016-Aug-21 06:33N 39°53' W 075°11'0 0.0
2016-Aug-21 05:34N 39°53' W 075°11'0 0.0
2016-Aug-21 04:33N 39°53' W 075°11'0 0.0
2016-Aug-21 03:33N 39°53' W 075°11'0 0.0
2016-Aug-21 02:33N 39°53' W 075°11'0 0.0
2016-Aug-21 01:34N 39°53' W 075°11'0 0.0
2016-Aug-21 00:33N 39°53' W 075°11'0 0.0
2016-Aug-20 23:33N 39°53' W 075°11'0 0.0
2016-Aug-20 22:33N 39°53' W 075°11'0 0.0
2016-Aug-20 21:34N 39°53' W 075°11'0 0.0
2016-Aug-20 20:33N 39°53' W 075°11'0 0.0
2016-Aug-20 19:33N 39°53' W 075°11'0 0.4
2016-Aug-20 18:34N 39°53' W 075°11'1 1.4
2016-Aug-20 17:33N 39°53' W 075°09'2 1.8
2016-Aug-20 16:33N 39°53' W 075°11'0 0.0
2016-Aug-20 15:33N 39°53' W 075°11'0 0.0
2016-Aug-20 14:33N 39°53' W 075°11'0 0.0
2016-Aug-20 13:33N 39°53' W 075°11'0 0.0
2016-Aug-20 12:33N 39°53' W 075°11'0 0.0
2016-Aug-20 11:33N 39°53' W 075°11'5 4.5
2016-Aug-20 10:33N 39°51' W 075°16'0 0.0
2016-Aug-20 09:33N 39°51' W 075°16'1 0.9
2016-Aug-20 08:33N 39°51' W 075°17'4 4.2
2016-Aug-20 07:34N 39°52' W 075°12'1 1.1
2016-Aug-20 06:33N 39°53' W 075°11'0 0.0
2016-Aug-20 05:33N 39°53' W 075°11'0 0.0
2016-Aug-20 04:33N 39°53' W 075°11'0 0.0
2016-Aug-20 03:33N 39°53' W 075°11'3 2.8
2016-Aug-20 02:33N 39°51' W 075°14'2 1.9
2016-Aug-20 01:33N 39°53' W 075°12'1 0.9
2016-Aug-20 00:33N 39°53' W 075°11'0 0.0
2016-Aug-19 23:33N 39°53' W 075°11'0 0.0
2016-Aug-19 22:33N 39°53' W 075°11'0 0.0
2016-Aug-19 21:33N 39°53' W 075°11'0 0.0
2016-Aug-19 20:33N 39°53' W 075°11'0 0.0
2016-Aug-19 19:33N 39°53' W 075°11'0 0.0
2016-Aug-19 18:33N 39°53' W 075°11'2 1.7
2016-Aug-19 17:33N 39°52' W 075°13'0 0.0
2016-Aug-19 16:33N 39°52' W 075°13'2 1.7
2016-Aug-19 15:33N 39°53' W 075°11'1 0.5
2016-Aug-19 14:33N 39°53' W 075°12'0 0.3
2016-Aug-19 13:33N 39°53' W 075°12'0 0.3
2016-Aug-19 12:33N 39°53' W 075°11'0 0.0
2016-Aug-19 11:33N 39°53' W 075°11'0 0.0
2016-Aug-19 10:33N 39°53' W 075°11'0 0.0
2016-Aug-19 09:33N 39°53' W 075°11'0 0.0
2016-Aug-19 08:34N 39°53' W 075°11'0 0.0
2016-Aug-19 07:33N 39°53' W 075°11'0 0.0
2016-Aug-19 06:33N 39°53' W 075°11'3 2.7
2016-Aug-19 05:33N 39°51' W 075°14'0 0.0
2016-Aug-19 04:33N 39°51' W 075°14'0 0.0
2016-Aug-19 03:33N 39°51' W 075°14'0 0.4
2016-Aug-19 02:33N 39°52' W 075°13'2 1.9
2016-Aug-19 01:33N 39°51' W 075°16'0 0.0
2016-Aug-19 00:33N 39°51' W 075°16'0 0.0
2016-Aug-18 23:33N 39°51' W 075°16'0 0.0
2016-Aug-18 22:33N 39°51' W 075°16'0 0.4
2016-Aug-18 21:33N 39°51' W 075°16'9 8.9
2016-Aug-18 20:33N 39°47' W 075°27'5 5.3
2016-Aug-18 19:33N 39°43' W 075°31'0 0.0
2016-Aug-18 18:33N 39°43' W 075°31'0 0.0
2016-Aug-18 17:33N 39°43' W 075°31'0 0.0
2016-Aug-18 16:34N 39°43' W 075°31'0 0.0
2016-Aug-18 15:33N 39°43' W 075°31'0 0.0
2016-Aug-18 14:34N 39°43' W 075°31'0 0.0
2016-Aug-18 13:33N 39°43' W 075°31'0 0.0
2016-Aug-18 12:34N 39°43' W 075°31'0 0.0
2016-Aug-18 11:33N 39°43' W 075°31'0 0.0
2016-Aug-18 10:33N 39°43' W 075°31'0 0.0
2016-Aug-18 09:33N 39°43' W 075°31'0 0.0
2016-Aug-18 08:33N 39°43' W 075°31'0 0.0
2016-Aug-18 07:34N 39°43' W 075°31'0 0.0
2016-Aug-18 06:33N 39°43' W 075°31'0 0.3
2016-Aug-18 05:34N 39°43' W 075°31'8 7.5
2016-Aug-18 04:34N 39°49' W 075°24'0 0.0
2016-Aug-18 03:33N 39°49' W 075°24'2 2.0
2016-Aug-18 02:33N 39°48' W 075°26'4 4.0
2016-Aug-18 01:33N 39°50' W 075°22'9 9.1
2016-Aug-18 00:33N 39°53' W 075°11'0 0.0
2016-Aug-17 23:33N 39°53' W 075°11'0 0.0
2016-Aug-17 22:33N 39°53' W 075°11'0 0.0
2016-Aug-17 21:33N 39°53' W 075°11'0 0.0
2016-Aug-17 20:33N 39°53' W 075°11'0 0.0
2016-Aug-17 19:33N 39°53' W 075°11'0 0.0
2016-Aug-17 18:33N 39°53' W 075°11'0 0.0
2016-Aug-17 17:33N 39°53' W 075°11'2 2.5
2016-Aug-17 16:33N 39°54' W 075°08'2 2.5
2016-Aug-17 15:33N 39°53' W 075°11'1 1.0
2016-Aug-17 14:34N 39°53' W 075°10'6 6.4
2016-Aug-17 13:33N 39°59' W 075°06'0 0.1
2016-Aug-17 12:34N 39°59' W 075°06'4 3.6
2016-Aug-17 11:33N 39°55' W 075°08'3 2.7
2016-Aug-17 10:33N 39°53' W 075°09'1 1.2
2016-Aug-17 09:33N 39°54' W 075°08'0 0.0
2016-Aug-17 08:34N 39°54' W 075°08'0 0.0
2016-Aug-17 07:34N 39°54' W 075°08'0 0.0
2016-Aug-17 06:33N 39°54' W 075°08'0 0.0
2016-Aug-17 05:33N 39°54' W 075°08'0 0.0
2016-Aug-17 04:34N 39°54' W 075°08'0 0.0
2016-Aug-17 03:33N 39°54' W 075°08'0 0.0
2016-Aug-17 02:33N 39°54' W 075°08'0 0.0
2016-Aug-17 01:34N 39°54' W 075°08'0 0.0
2016-Aug-17 00:33N 39°54' W 075°08'5 5.3
2016-Aug-16 23:33N 39°59' W 075°05'0 0.0
2016-Aug-16 22:33N 39°59' W 075°05'0 0.0
2016-Aug-16 21:33N 39°59' W 075°05'0 0.0
2016-Aug-16 20:33N 39°59' W 075°05'0 0.0
2016-Aug-16 19:33N 39°59' W 075°05'0 0.0
2016-Aug-16 18:33N 39°59' W 075°05'0 0.3
2016-Aug-16 17:33N 39°58' W 075°06'4 3.7
2016-Aug-16 16:33N 39°55' W 075°08'1010.1
2016-Aug-16 15:33N 39°51' W 075°20'4 4.1
2016-Aug-16 14:33N 39°49' W 075°24'0 0.0
2016-Aug-16 13:33N 39°49' W 075°24'2 2.2
2016-Aug-16 12:33N 39°47' W 075°27'1 0.5
2016-Aug-16 11:33N 39°48' W 075°26'6 5.9
2016-Aug-16 10:33N 39°43' W 075°31'0 0.0
2016-Aug-16 09:33N 39°43' W 075°31'0 0.0
2016-Aug-16 08:34N 39°43' W 075°31'0 0.0
2016-Aug-16 07:33N 39°43' W 075°31'0 0.0
2016-Aug-16 04:33N 39°43' W 075°31'0 0.0
2016-Aug-16 03:33N 39°43' W 075°31'0 0.0
2016-Aug-16 02:33N 39°43' W 075°31'0 0.0
2016-Aug-16 01:34N 39°43' W 075°31'0 0.0
2016-Aug-16 00:33N 39°43' W 075°31'0 0.0
2016-Aug-15 23:33N 39°43' W 075°31'0 0.3
2016-Aug-15 22:33N 39°43' W 075°31'0 0.3
2016-Aug-15 21:33N 39°43' W 075°31'0 0.0
2016-Aug-15 20:33N 39°43' W 075°31'0 0.0
2016-Aug-15 19:33N 39°43' W 075°31'0 0.0
2016-Aug-15 18:33N 39°43' W 075°31'5 4.5
2016-Aug-15 17:33N 39°39' W 075°33'4 4.2
2016-Aug-15 16:33N 39°35' W 075°35'0 0.2
2016-Aug-15 15:34N 39°35' W 075°35'4 4.2
2016-Aug-15 14:33N 39°39' W 075°34'5 4.6
2016-Aug-15 13:33N 39°43' W 075°31'0 0.0
2016-Aug-15 12:33N 39°43' W 075°31'0 0.0
2016-Aug-15 11:33N 39°43' W 075°31'0 0.0
2016-Aug-15 10:33N 39°43' W 075°31'0 0.0
2016-Aug-15 09:33N 39°43' W 075°31'0 0.0
2016-Aug-15 08:33N 39°43' W 075°31'0 0.0
2016-Aug-15 07:33N 39°43' W 075°31'0 0.0
2016-Aug-15 06:33N 39°43' W 075°31'0 0.0
2016-Aug-15 04:33N 39°43' W 075°31'0 0.0
2016-Aug-15 03:33N 39°43' W 075°31'4 4.0
2016-Aug-15 02:33N 39°46' W 075°28'4 3.7
2016-Aug-15 01:33N 39°49' W 075°24'0 0.2
2016-Aug-15 00:33N 39°49' W 075°24'8 7.7
2016-Aug-14 23:33N 39°43' W 075°31'0 0.0
2016-Aug-14 22:33N 39°43' W 075°31'0 0.0
2016-Aug-14 21:33N 39°43' W 075°31'  

Dump ship's entire track history